Time;durP1;ratioP1;P1;durP2;ratioP2;P2;SDS_P1;SDS_P2;PMS_P1;PMS_P2;Temp;Humidity;BMP_temperature;BMP_pressure;BME280_temperature;BME280_humidity;BME280_pressure;Samples;Min_cycle;Max_cycle;Signal;HPM_P1;HPM_P2
2021/04/20 00:01:07;;;;;;;3.90;2.25;;;18.20;39.00;;;;;;4962971;28;20165;-83
2021/04/20 00:03:35;;;;;;;5.35;2.30;;;18.30;39.10;;;;;;4960858;29;20203;-83
2021/04/20 00:06:01;;;;;;;4.80;2.17;;;18.30;39.10;;;;;;4961592;29;20162;-83
2021/04/20 00:08:28;;;;;;;7.72;2.67;;;18.30;39.20;;;;;;4962644;28;20530;-81
2021/04/20 00:10:54;;;;;;;3.47;1.98;;;18.30;39.20;;;;;;4960692;29;20176;-83
2021/04/20 00:13:21;;;;;;;4.90;2.60;;;18.20;39.20;;;;;;4963785;28;20609;-83
2021/04/20 00:15:55;;;;;;;3.83;2.10;;;18.20;39.10;;;;;;4960759;29;20787;-81
2021/04/20 00:18:22;;;;;;;5.20;2.58;;;18.20;39.20;;;;;;4962614;28;20617;-83
2021/04/20 00:20:56;;;;;;;5.13;2.38;;;18.30;39.10;;;;;;4962639;28;20178;-83
2021/04/20 00:23:23;;;;;;;5.93;2.50;;;18.20;39.10;;;;;;4963041;29;20192;-83
2021/04/20 00:25:49;;;;;;;6.20;2.80;;;18.20;39.20;;;;;;4967030;28;20162;-83
2021/04/20 00:28:26;;;;;;;3.53;2.40;;;18.20;39.20;;;;;;4967205;28;20165;-82
2021/04/20 00:31:00;;;;;;;4.05;2.25;;;18.20;39.80;;;;;;4967005;28;20671;-83
2021/04/20 00:33:26;;;;;;;3.72;2.28;;;18.20;39.20;;;;;;4965628;29;20157;-83
2021/04/20 00:35:53;;;;;;;3.58;2.40;;;18.20;39.20;;;;;;4966471;28;20166;-83
2021/04/20 00:38:19;;;;;;;4.22;2.20;;;18.20;39.20;;;;;;4966861;28;20229;-83
2021/04/20 00:40:45;;;;;;;5.35;2.33;;;18.20;39.20;;;;;;4966545;28;20166;-83
2021/04/20 00:43:12;;;;;;;3.92;2.60;;;18.20;39.30;;;;;;4965841;28;20165;-83
2021/04/20 00:45:46;;;;;;;3.88;2.22;;;18.20;39.20;;;;;;4966260;28;20166;-81
2021/04/20 00:48:13;;;;;;;5.72;2.03;;;18.20;39.20;;;;;;4966560;28;20181;-83
2021/04/20 00:50:40;;;;;;;4.70;2.33;;;18.20;39.20;;;;;;4965115;29;20199;-83
2021/04/20 00:53:08;;;;;;;3.20;2.20;;;18.20;39.40;;;;;;4966221;28;20190;-83
2021/04/20 00:55:35;;;;;;;2.88;2.38;;;18.20;39.30;;;;;;4965811;29;20149;-83
2021/04/20 00:58:02;;;;;;;4.68;2.35;;;18.20;39.30;;;;;;4965067;29;20174;-84
2021/04/20 01:00:31;;;;;;;2.65;2.30;;;18.20;39.30;;;;;;4965006;29;20165;-83
2021/04/20 01:02:57;;;;;;;4.90;2.47;;;18.20;39.40;;;;;;4966134;28;20157;-82
2021/04/20 01:05:45;;;;;;;5.43;2.42;;;18.20;39.50;;;;;;4965280;29;20173;-83
2021/04/20 01:08:13;;;;;;;3.35;2.33;;;18.20;39.30;;;;;;4965161;29;20162;-83
2021/04/20 01:10:41;;;;;;;5.18;2.38;;;18.20;39.40;;;;;;4965215;29;20150;-83
2021/04/20 01:13:08;;;;;;;4.50;2.25;;;18.20;39.40;;;;;;4965038;29;20154;-83
2021/04/20 01:15:42;;;;;;;3.00;2.53;;;18.20;39.40;;;;;;4983415;28;20234;-82
2021/04/20 01:18:19;;;;;;;3.25;2.20;;;18.20;39.50;;;;;;4968250;28;20193;-83
2021/04/20 01:20:48;;;;;;;5.93;2.40;;;18.20;39.50;;;;;;4985303;28;20163;-83
2021/04/20 01:23:19;;;;;;;4.68;2.60;;;18.20;39.60;;;;;;4985630;28;20152;-84
2021/04/20 01:25:53;;;;;;;4.47;2.40;;;18.20;39.60;;;;;;4968958;28;20149;-84
2021/04/20 01:28:20;;;;;;;6.75;2.47;;;18.20;39.60;;;;;;4968529;28;20168;-83
2021/04/20 01:30:48;;;;;;;3.30;2.47;;;18.10;39.50;;;;;;4984855;28;20852;-82
2021/04/20 01:33:14;;;;;;;4.32;2.38;;;18.10;39.60;;;;;;4986038;28;20165;-82
2021/04/20 01:35:48;;;;;;;4.47;2.38;;;18.20;39.60;;;;;;4967976;28;20180;-83
2021/04/20 01:38:14;;;;;;;5.10;2.40;;;18.20;39.60;;;;;;4986061;28;20175;-83
2021/04/20 01:40:42;;;;;;;5.28;2.53;;;18.20;39.60;;;;;;4985193;28;20167;-83
2021/04/20 01:43:12;;;;;;;4.45;2.63;;;18.20;39.50;;;;;;4985826;28;20237;-82
2021/04/20 01:45:42;;;;;;;3.97;2.40;;;18.10;40.20;;;;;;4985987;28;20157;-83
2021/04/20 01:48:16;;;;;;;3.72;2.60;;;18.20;39.60;;;;;;4985772;28;20160;-83
2021/04/20 01:50:43;;;;;;;2.97;2.40;;;18.20;39.70;;;;;;4969623;28;20161;-83
2021/04/20 01:53:09;;;;;;;2.58;2.10;;;18.10;39.70;;;;;;4968848;28;20555;-83
2021/04/20 01:55:37;;;;;;;4.45;2.42;;;18.10;39.60;;;;;;4989478;28;20161;-83
2021/04/20 01:58:04;;;;;;;3.42;2.47;;;18.10;39.70;;;;;;4990279;28;20153;-84
2021/04/20 02:00:31;;;;;;;5.00;2.45;;;18.20;39.60;;;;;;4972790;28;20164;-84
2021/04/20 02:02:59;;;;;;;3.90;2.42;;;18.20;39.60;;;;;;4990050;28;20159;-83
2021/04/20 02:05:25;;;;;;;3.40;2.47;;;18.10;39.60;;;;;;4990500;28;20191;-82
2021/04/20 02:07:51;;;;;;;4.55;2.22;;;18.10;39.70;;;;;;4972230;28;20211;-84
2021/04/20 02:10:18;;;;;;;3.40;2.15;;;18.10;39.60;;;;;;4973100;28;20157;-83
2021/04/20 02:12:45;;;;;;;3.50;2.20;;;18.10;39.70;;;;;;4989725;28;20157;-83
2021/04/20 02:15:15;;;;;;;4.38;2.05;;;18.10;39.70;;;;;;4971758;28;20250;-83
2021/04/20 02:17:45;;;;;;;4.45;2.22;;;18.10;39.90;;;;;;4972595;28;20263;-83
2021/04/20 02:20:14;;;;;;;4.38;2.45;;;18.10;40.50;;;;;;4972862;28;20156;-84
2021/04/20 02:22:46;;;;;;;3.42;2.47;;;18.10;39.80;;;;;;4989659;28;20248;-83
2021/04/20 02:25:16;;;;;;;3.58;2.45;;;18.10;39.90;;;;;;4973082;28;20256;-83
2021/04/20 02:27:41;;;;;;;3.30;2.30;;;18.10;40.00;;;;;;4990283;28;20232;-83
2021/04/20 02:30:18;;;;;;;5.28;2.35;;;18.10;40.00;;;;;;4972417;28;20168;-83
2021/04/20 02:32:54;;;;;;;2.63;2.17;;;18.10;40.00;;;;;;4989853;28;20157;-82
2021/04/20 02:35:20;;;;;;;3.45;2.35;;;18.10;40.10;;;;;;4972536;28;20177;-83
2021/04/20 02:37:47;;;;;;;5.93;2.30;;;18.00;40.00;;;;;;4989315;28;20172;-85
2021/04/20 02:40:22;;;;;;;5.50;2.53;;;18.10;40.00;;;;;;4989910;28;20200;-83
2021/04/20 02:42:57;;;;;;;3.45;2.50;;;18.10;40.00;;;;;;4989435;28;20540;-83
2021/04/20 02:45:25;;;;;;;5.90;2.47;;;18.00;40.00;;;;;;4972948;28;20165;-82
2021/04/20 02:47:54;;;;;;;3.22;2.40;;;18.10;40.00;;;;;;4972593;28;20168;-83
2021/04/20 02:50:25;;;;;;;3.10;2.70;;;18.10;40.00;;;;;;4971891;28;20157;-84
2021/04/20 02:52:53;;;;;;;3.97;2.50;;;18.00;40.00;;;;;;4972377;28;20153;-84
2021/04/20 02:55:27;;;;;;;5.05;2.60;;;18.00;40.00;;;;;;4972117;28;20568;-83
2021/04/20 02:57:57;;;;;;;4.35;2.40;;;18.00;40.10;;;;;;4972641;28;20180;-83
2021/04/20 03:00:24;;;;;;;4.57;2.10;;;18.00;40.10;;;;;;4972551;28;20168;-83
2021/04/20 03:02:56;;;;;;;2.95;2.10;;;18.00;40.10;;;;;;4989901;28;20160;-83
2021/04/20 03:05:25;;;;;;;3.35;2.30;;;18.00;40.10;;;;;;4971102;28;20192;-83
2021/04/20 03:07:52;;;;;;;5.65;2.28;;;18.00;40.30;;;;;;4972422;28;20628;-83
2021/04/20 03:10:18;;;;;;;3.85;2.13;;;18.00;40.10;;;;;;4989563;28;20165;-84
2021/04/20 03:12:45;;;;;;;2.83;2.28;;;18.00;40.10;;;;;;4956261;28;20179;-83
2021/04/20 03:15:14;;;;;;;3.25;2.00;;;18.00;40.20;;;;;;4953078;29;20233;-83
2021/04/20 03:17:47;;;;;;;3.33;2.25;;;18.00;40.20;;;;;;4970499;28;20162;-83
2021/04/20 03:20:17;;;;;;;3.85;2.17;;;18.00;40.30;;;;;;4969039;29;20225;-84
2021/04/20 03:22:43;;;;;;;3.55;2.33;;;18.00;40.30;;;;;;4968515;29;20212;-81
2021/04/20 03:25:25;;;;;;;4.30;2.38;;;18.00;40.40;;;;;;4968168;29;20193;-84
2021/04/20 03:27:55;;;;;;;5.32;2.40;;;18.00;40.30;;;;;;4968835;29;20184;-82
2021/04/20 03:30:27;;;;;;;3.85;2.33;;;18.00;40.40;;;;;;4968471;29;20185;-83
2021/04/20 03:33:19;;;;;;;6.90;2.80;;;18.00;40.40;;;;;;4969746;28;20161;-81
2021/04/20 03:36:03;;;;;;;4.00;2.35;;;18.00;40.20;;;;;;4970307;28;20165;-83
2021/04/20 03:39:03;;;;;;;4.45;2.38;;;18.00;40.40;;;;;;4969378;28;20165;-83
2021/04/20 03:41:41;;;;;;;4.07;2.20;;;18.00;40.30;;;;;;4969842;28;20165;-82
2021/04/20 03:44:09;;;;;;;3.63;1.98;;;18.00;40.50;;;;;;4968352;29;20201;-83
2021/04/20 03:46:37;;;;;;;4.18;2.20;;;18.00;40.30;;;;;;4968386;29;20157;-83
2021/04/20 03:49:33;;;;;;;3.20;2.28;;;18.00;40.30;;;;;;4969740;28;20182;-83
2021/04/20 03:52:00;;;;;;;2.83;2.22;;;18.00;40.40;;;;;;4966795;29;20193;-83
2021/04/20 03:54:27;;;;;;;3.33;2.50;;;18.00;40.60;;;;;;4968576;29;20617;-83
2021/04/20 03:56:55;;;;;;;3.83;2.10;;;17.90;40.30;;;;;;4968795;29;20176;-83
2021/04/20 03:59:22;;;;;;;3.83;2.20;;;17.90;40.50;;;;;;4952588;29;20684;-83
2021/04/20 04:01:57;;;;;;;4.05;2.25;;;17.90;40.50;;;;;;4968304;29;20161;-84
2021/04/20 04:04:24;;;;;;;2.33;2.13;;;17.90;40.60;;;;;;4967755;29;20204;-83
2021/04/20 04:06:51;;;;;;;3.33;2.20;;;17.90;40.50;;;;;;4968838;29;20154;-84
2021/04/20 04:09:26;;;;;;;4.05;2.08;;;17.90;40.50;;;;;;4969913;28;20158;-82
2021/04/20 04:12:12;;;;;;;3.67;2.20;;;18.00;40.30;;;;;;4951929;29;20173;-83
2021/04/20 04:14:38;;;;;;;3.35;2.08;;;18.00;40.10;;;;;;4966734;29;20633;-83
2021/04/20 04:17:09;;;;;;;3.38;2.42;;;18.10;39.90;;;;;;4945551;29;20659;-82
2021/04/20 04:19:46;;;;;;;3.30;2.22;;;18.10;40.00;;;;;;4963219;28;20632;-79
2021/04/20 04:22:34;;;;;;;2.80;2.10;;;18.10;39.80;;;;;;4961853;29;20522;-81
2021/04/20 04:25:15;;;;;;;4.15;2.50;;;18.20;39.70;;;;;;4944937;29;20193;-82
2021/04/20 04:27:44;;;;;;;2.58;2.13;;;18.10;39.80;;;;;;4961243;29;20244;-83
2021/04/20 04:30:12;;;;;;;3.47;2.20;;;18.10;40.20;;;;;;4962785;28;20204;-80
2021/04/20 04:32:41;;;;;;;4.78;2.33;;;18.00;40.30;;;;;;4944825;29;20173;-83
2021/04/20 04:35:17;;;;;;;3.15;2.08;;;18.00;40.20;;;;;;4961031;29;20169;-82
2021/04/20 04:37:44;;;;;;;4.43;2.53;;;18.10;40.10;;;;;;4960942;29;20170;-83
2021/04/20 04:40:11;;;;;;;4.65;2.33;;;18.10;40.00;;;;;;4960120;29;20189;-81
2021/04/20 04:42:37;;;;;;;3.10;2.20;;;18.10;40.10;;;;;;4960601;29;20506;-83
2021/04/20 04:45:08;;;;;;;2.85;2.00;;;18.10;39.90;;;;;;4944515;29;20683;-81
2021/04/20 04:47:43;;;;;;;2.60;1.98;;;18.10;40.00;;;;;;4945240;29;20615;-83
2021/04/20 04:50:10;;;;;;;2.92;2.20;;;18.10;40.00;;;;;;4961878;28;20157;-81
2021/04/20 04:52:38;;;;;;;4.15;2.20;;;18.20;39.80;;;;;;4960704;29;20160;-81
2021/04/20 04:55:14;;;;;;;3.25;2.03;;;18.10;40.00;;;;;;4960666;29;20248;-82
2021/04/20 04:57:41;;;;;;;5.20;2.47;;;18.10;39.90;;;;;;4962578;28;20201;-81
2021/04/20 05:00:09;;;;;;;2.28;1.92;;;18.10;40.00;;;;;;4960867;29;20169;-82
2021/04/20 05:02:39;;;;;;;3.10;2.20;;;18.10;39.70;;;;;;4959450;29;20254;-82
2021/04/20 05:05:08;;;;;;;2.63;2.08;;;18.10;40.00;;;;;;4961028;29;20719;-79
2021/04/20 05:07:33;;;;;;;3.65;2.10;;;18.10;39.80;;;;;;4961765;28;20165;-82
2021/04/20 05:10:08;;;;;;;2.50;1.67;;;18.10;39.80;;;;;;4962273;28;20156;-82
2021/04/20 05:12:34;;;;;;;2.33;1.90;;;18.10;39.60;;;;;;4979400;28;20254;-81
2021/04/20 05:15:13;;;;;;;1.88;1.67;;;18.10;39.90;;;;;;4992411;28;20223;-79
2021/04/20 05:17:43;;;;;;;2.47;2.00;;;18.10;39.80;;;;;;4999382;28;20160;-82
2021/04/20 05:20:16;;;;;;;4.53;2.05;;;18.10;39.90;;;;;;5000698;28;20237;-82
2021/04/20 05:22:43;;;;;;;2.95;1.83;;;18.10;40.00;;;;;;4982521;28;20259;-81
2021/04/20 05:25:11;;;;;;;3.10;1.92;;;18.10;39.80;;;;;;4987959;28;20227;-81
2021/04/20 05:27:36;;;;;;;2.67;2.10;;;18.10;39.80;;;;;;4962670;28;20627;-81
2021/04/20 05:30:06;;;;;;;2.63;2.00;;;18.10;39.70;;;;;;4992617;28;20172;-82
2021/04/20 05:32:53;;;;;;;1.90;1.70;;;18.20;39.50;;;;;;4999723;28;20164;-81
2021/04/20 05:35:21;;;;;;;2.65;1.70;;;18.20;39.50;;;;;;4997207;28;20250;-80
2021/04/20 05:37:47;;;;;;;2.10;1.80;;;18.30;39.30;;;;;;4981742;28;20240;-81
2021/04/20 05:40:15;;;;;;;2.40;1.85;;;18.30;39.30;;;;;;4964954;28;20215;-80
2021/04/20 05:42:53;;;;;;;2.35;1.88;;;18.20;39.40;;;;;;4998750;28;20160;-81
2021/04/20 05:45:18;;;;;;;2.85;1.85;;;18.30;39.20;;;;;;4982397;28;20207;-82
2021/04/20 05:47:47;;;;;;;2.58;1.80;;;18.30;39.10;;;;;;4979115;28;20168;-79
2021/04/20 05:50:19;;;;;;;2.60;1.90;;;18.30;39.10;;;;;;4962568;28;20560;-81
2021/04/20 05:52:47;;;;;;;2.38;1.70;;;18.30;39.10;;;;;;4962973;28;20165;-82
2021/04/20 05:55:15;;;;;;;3.58;1.98;;;18.30;39.30;;;;;;4995596;28;20172;-83
2021/04/20 05:57:45;;;;;;;2.47;1.80;;;18.40;39.80;;;;;;4987742;28;20169;-82
2021/04/20 06:00:12;;;;;;;2.42;1.70;;;18.30;39.60;;;;;;4967327;28;20179;-83
2021/04/20 06:02:38;;;;;;;2.30;1.60;;;18.30;39.90;;;;;;5001189;28;20169;-84
2021/04/20 06:05:11;;;;;;;2.67;1.77;;;18.30;39.70;;;;;;4965923;28;20282;-82
2021/04/20 06:07:39;;;;;;;2.55;1.70;;;18.30;39.60;;;;;;4983088;28;20219;-83
2021/04/20 06:10:14;;;;;;;2.78;2.00;;;18.40;39.60;;;;;;5001656;28;20721;-80
2021/04/20 06:12:40;;;;;;;1.85;1.50;;;18.40;39.30;;;;;;4983966;28;20191;-83
2021/04/20 06:15:07;;;;;;;3.40;1.70;;;18.40;39.20;;;;;;4981249;28;20254;-82
2021/04/20 06:17:40;;;;;;;3.28;1.77;;;18.40;39.10;;;;;;4984064;28;20177;-84
2021/04/20 06:20:10;;;;;;;1.95;1.67;;;18.50;39.00;;;;;;4983824;28;20171;-83
2021/04/20 06:22:39;;;;;;;2.17;1.70;;;18.50;38.80;;;;;;4982205;28;20196;-83
2021/04/20 06:25:17;;;;;;;3.20;1.73;;;18.50;38.70;;;;;;4966983;28;20185;-83
2021/04/20 06:27:43;;;;;;;2.13;1.90;;;18.40;38.80;;;;;;4982501;28;20161;-84
2021/04/20 06:30:11;;;;;;;2.60;1.40;;;18.40;38.80;;;;;;4982476;28;20204;-83
2021/04/20 06:32:39;;;;;;;3.00;1.80;;;18.40;38.60;;;;;;4982196;28;20150;-84
2021/04/20 06:35:24;;;;;;;1.60;1.50;;;18.50;38.50;;;;;;4982336;28;20526;-83
2021/04/20 06:37:54;;;;;;;2.15;1.95;;;18.50;38.50;;;;;;4980699;28;20169;-82
2021/04/20 06:40:23;;;;;;;2.40;1.70;;;18.50;38.30;;;;;;4981502;28;20212;-84
2021/04/20 06:43:02;;;;;;;1.58;1.40;;;18.60;38.40;;;;;;4987339;28;20184;-82
2021/04/20 06:45:49;;;;;;;2.25;1.70;;;18.50;38.40;;;;;;4988664;28;20195;-82
2021/04/20 06:48:47;;;;;;;2.15;1.67;;;18.50;38.40;;;;;;4989313;28;20185;-84
2021/04/20 06:51:20;;;;;;;3.67;1.65;;;18.50;38.50;;;;;;4988472;28;20616;-83
2021/04/20 06:54:01;;;;;;;1.55;1.40;;;18.50;38.40;;;;;;4972183;28;20160;-83
2021/04/20 06:56:37;;;;;;;2.15;1.60;;;18.50;39.00;;;;;;4987052;28;20620;-82
2021/04/20 06:59:22;;;;;;;2.92;1.75;;;18.50;38.20;;;;;;4970027;28;20219;-83
2021/04/20 07:02:21;;;;;;;1.75;1.25;;;18.50;38.20;;;;;;4987857;28;20209;-82
2021/04/20 07:05:02;;;;;;;2.42;1.40;;;18.50;38.30;;;;;;4986818;28;20189;-83
2021/04/20 07:07:46;;;;;;;2.58;1.60;;;18.50;38.20;;;;;;4985641;28;20192;-83
2021/04/20 07:10:23;;;;;;;4.65;1.80;;;18.40;38.30;;;;;;4986347;28;20224;-83
2021/04/20 07:12:55;;;;;;;1.48;1.35;;;18.40;38.30;;;;;;4985724;28;20171;-82
2021/04/20 07:15:24;;;;;;;2.95;1.63;;;18.40;38.40;;;;;;4985350;28;20589;-84
2021/04/20 07:18:08;;;;;;;2.28;1.58;;;18.40;38.20;;;;;;4969948;28;20184;-83
2021/04/20 07:20:52;;;;;;;2.20;1.70;;;18.50;38.10;;;;;;4984846;28;20183;-80
2021/04/20 07:23:38;;;;;;;2.28;1.50;;;18.50;38.00;;;;;;4986265;28;20235;-84
2021/04/20 07:26:42;;;;;;;3.53;1.73;;;18.50;38.00;;;;;;4985882;28;20168;-83
2021/04/20 07:29:11;;;;;;;1.63;1.50;;;18.50;38.10;;;;;;4986777;28;20145;-84
2021/04/20 07:31:59;;;;;;;1.80;1.50;;;18.40;38.20;;;;;;4984761;28;20200;-84
2021/04/20 07:34:42;;;;;;;1.67;1.58;;;18.40;38.10;;;;;;4984514;28;20208;-82
2021/04/20 07:37:33;;;;;;;1.60;1.50;;;18.40;38.20;;;;;;4968549;28;20216;-83
2021/04/20 07:40:11;;;;;;;2.97;1.55;;;18.40;38.10;;;;;;4984838;28;20208;-81
2021/04/20 07:43:01;;;;;;;1.52;1.42;;;18.40;38.00;;;;;;4984115;28;20288;-81
2021/04/20 07:45:55;;;;;;;1.70;1.50;;;18.50;37.90;;;;;;4983011;28;20312;-81
2021/04/20 07:48:35;;;;;;;2.35;1.42;;;18.50;37.90;;;;;;4983184;28;20287;-82
2021/04/20 07:51:08;;;;;;;2.55;1.48;;;18.40;38.00;;;;;;4983897;28;20188;-82
2021/04/20 07:54:00;;;;;;;1.90;1.50;;;18.40;38.10;;;;;;4982600;28;20185;-82
2021/04/20 07:56:44;;;;;;;3.13;1.67;;;18.40;37.90;;;;;;4983535;28;20193;-82
2021/04/20 07:59:21;;;;;;;2.20;1.63;;;18.40;37.70;;;;;;4982611;28;20299;-82
2021/04/20 08:01:56;;;;;;;1.95;1.40;;;18.50;37.50;;;;;;4968968;28;20195;-82
2021/04/20 08:04:33;;;;;;;2.42;1.50;;;18.50;37.60;;;;;;4984097;28;20227;-82
2021/04/20 08:07:19;;;;;;;1.60;1.40;;;18.50;37.30;;;;;;4984762;28;20192;-82
2021/04/20 08:09:54;;;;;;;1.80;1.50;;;18.60;37.30;;;;;;4985394;28;20212;-82
2021/04/20 08:12:27;;;;;;;1.67;1.35;;;18.60;37.30;;;;;;4984958;28;20252;-83
2021/04/20 08:15:09;;;;;;;1.85;1.42;;;18.50;37.30;;;;;;4984962;28;20239;-83
2021/04/20 08:17:46;;;;;;;2.38;1.63;;;18.50;37.30;;;;;;4986074;28;20606;-81
2021/04/20 08:20:23;;;;;;;1.95;1.60;;;18.50;37.40;;;;;;4986285;28;20220;-79
2021/04/20 08:22:58;;;;;;;1.52;1.42;;;18.50;37.20;;;;;;4984342;28;20231;-84
2021/04/20 08:25:43;;;;;;;1.80;1.52;;;18.50;37.20;;;;;;4983883;28;20231;-83
2021/04/20 08:28:09;;;;;;;2.22;1.70;;;18.40;37.30;;;;;;4981498;28;20216;-83
2021/04/20 08:30:41;;;;;;;2.53;1.77;;;18.40;37.20;;;;;;4966185;28;20209;-83
2021/04/20 08:33:30;;;;;;;1.65;1.50;;;18.50;37.10;;;;;;4966557;28;20675;-83
2021/04/20 08:35:58;;;;;;;1.63;1.45;;;18.50;37.00;;;;;;4964195;28;20245;-82
2021/04/20 08:38:51;;;;;;;2.92;1.70;;;18.50;36.90;;;;;;4964561;28;20208;-79
2021/04/20 08:41:45;;;;;;;2.05;1.55;;;18.50;36.80;;;;;;4964398;28;20205;-82
2021/04/20 08:44:34;;;;;;;1.90;1.67;;;18.60;36.90;;;;;;4964106;28;20252;-82
2021/04/20 08:47:07;;;;;;;1.83;1.67;;;18.50;36.70;;;;;;4966544;28;20260;-82
2021/04/20 08:49:54;;;;;;;2.15;1.42;;;18.50;36.70;;;;;;4964637;28;20267;-82
2021/04/20 08:52:39;;;;;;;1.60;1.50;;;18.50;36.70;;;;;;4966026;28;20189;-82
2021/04/20 08:55:32;;;;;;;2.22;1.63;;;18.50;36.70;;;;;;4965528;28;20233;-82
2021/04/20 08:58:22;;;;;;;3.20;1.67;;;18.60;36.50;;;;;;4965772;28;20617;-83
2021/04/20 09:01:10;;;;;;;3.20;1.90;;;18.50;36.80;;;;;;4985437;28;20215;-82
2021/04/20 09:03:44;;;;;;;1.55;1.45;;;18.50;36.70;;;;;;4984467;28;20211;-83
2021/04/20 09:06:17;;;;;;;1.83;1.60;;;18.50;36.60;;;;;;4984582;28;20211;-84
2021/04/20 09:08:46;;;;;;;2.83;1.80;;;18.50;36.60;;;;;;4983886;28;20226;-83
2021/04/20 09:11:19;;;;;;;2.88;1.70;;;18.50;36.60;;;;;;4983705;28;20200;-83
2021/04/20 09:14:00;;;;;;;2.70;1.60;;;18.60;36.30;;;;;;4985357;28;20211;-82
2021/04/20 09:16:43;;;;;;;1.48;1.33;;;18.60;36.30;;;;;;4971695;28;20180;-83
2021/04/20 09:19:41;;;;;;;1.98;1.70;;;18.60;36.10;;;;;;5004220;28;20199;-82
2021/04/20 09:22:13;;;;;;;2.45;1.30;;;18.60;36.10;;;;;;4906399;29;20777;-82
2021/04/20 09:24:57;;;;;;;1.67;1.58;;;18.50;36.10;;;;;;4906137;29;20235;-83
2021/04/20 09:27:50;;;;;;;1.67;1.58;;;18.50;36.10;;;;;;4906550;29;20223;-82
2021/04/20 09:30:19;;;;;;;1.92;1.70;;;18.60;36.10;;;;;;4905964;29;20238;-82
2021/04/20 09:32:57;;;;;;;2.67;1.80;;;18.50;36.00;;;;;;4905973;29;20229;-83
2021/04/20 09:35:24;;;;;;;1.88;1.70;;;18.50;36.20;;;;;;4906167;29;20220;-82
2021/04/20 09:37:50;;;;;;;2.65;1.60;;;18.50;36.10;;;;;;4906619;29;20336;-83
2021/04/20 09:40:18;;;;;;;1.65;1.45;;;18.50;36.10;;;;;;4907773;29;20218;-83
2021/04/20 09:42:51;;;;;;;1.80;1.70;;;18.60;35.80;;;;;;4893405;29;20156;-82
2021/04/20 09:45:28;;;;;;;1.60;1.50;;;18.60;35.80;;;;;;4910004;29;20259;-85
2021/04/20 09:48:02;;;;;;;1.92;1.50;;;18.60;36.00;;;;;;4906118;29;20187;-84
2021/04/20 09:50:39;;;;;;;1.83;1.73;;;18.60;35.80;;;;;;4860061;29;20172;-82
2021/04/20 09:53:09;;;;;;;1.75;1.65;;;18.60;35.50;;;;;;4887363;29;20247;-82
2021/04/20 09:55:40;;;;;;;1.77;1.35;;;18.50;35.60;;;;;;4908512;29;20171;-82
2021/04/20 09:58:05;;;;;;;2.25;1.65;;;18.60;35.60;;;;;;4921824;28;20211;-83
2021/04/20 10:00:32;;;;;;;1.67;1.50;;;18.50;35.70;;;;;;4972816;28;20152;-82
2021/04/20 10:03:06;;;;;;;1.85;1.50;;;18.50;35.80;;;;;;4972424;28;20179;-84
2021/04/20 10:06:10;;;;;;;1.50;1.27;;;18.50;35.60;;;;;;4972134;28;20211;-83
2021/04/20 10:08:55;;;;;;;2.85;1.90;;;18.60;35.50;;;;;;4986274;28;20161;-83
2021/04/20 10:11:24;;;;;;;1.40;1.30;;;18.60;35.50;;;;;;4985017;28;20165;-83
2021/04/20 10:14:00;;;;;;;2.70;1.50;;;18.60;35.40;;;;;;4985905;28;20185;-84
2021/04/20 10:16:49;;;;;;;2.28;1.83;;;18.50;35.40;;;;;;4989824;28;20325;-83
2021/04/20 10:19:47;;;;;;;1.63;1.42;;;18.50;35.30;;;;;;4990731;28;20161;-82
2021/04/20 10:22:16;;;;;;;1.63;1.50;;;18.60;35.10;;;;;;4990936;28;20164;-82
2021/04/20 10:25:02;;;;;;;2.03;1.83;;;18.60;35.10;;;;;;4973326;28;20256;-82
2021/04/20 10:27:28;;;;;;;2.70;1.67;;;18.70;34.80;;;;;;4990460;28;20196;-82
2021/04/20 10:30:11;;;;;;;2.00;1.70;;;18.70;34.80;;;;;;4989378;28;20628;-81
2021/04/20 10:33:00;;;;;;;1.85;1.60;;;18.80;34.90;;;;;;4973052;28;20219;-82
2021/04/20 10:35:34;;;;;;;2.65;1.70;;;18.70;34.80;;;;;;4972195;28;20173;-82
2021/04/20 10:38:10;;;;;;;1.92;1.67;;;18.80;34.50;;;;;;4989944;28;20153;-83
2021/04/20 10:40:37;;;;;;;2.72;1.50;;;18.80;35.10;;;;;;4988885;28;20577;-83
2021/04/20 10:43:23;;;;;;;2.10;1.70;;;18.80;34.40;;;;;;4989100;28;20223;-83
2021/04/20 10:45:54;;;;;;;1.80;1.60;;;18.90;34.40;;;;;;4955339;28;20181;-83
2021/04/20 10:48:24;;;;;;;1.77;1.55;;;18.90;34.40;;;;;;4983006;28;20213;-84
2021/04/20 10:50:55;;;;;;;2.10;1.85;;;18.90;34.20;;;;;;5002490;28;20204;-82
2021/04/20 10:53:33;;;;;;;1.63;1.40;;;18.90;34.20;;;;;;4991744;28;20204;-83
2021/04/20 10:56:06;;;;;;;1.60;1.50;;;18.80;34.50;;;;;;4991179;28;20206;-83
2021/04/20 10:58:36;;;;;;;1.85;1.42;;;18.80;34.40;;;;;;4988802;28;20295;-82
2021/04/20 11:01:03;;;;;;;5.97;1.70;;;18.80;34.50;;;;;;4987374;28;20189;-83
2021/04/20 11:03:35;;;;;;;2.08;1.80;;;18.80;34.40;;;;;;4955594;28;20699;-82
2021/04/20 11:06:06;;;;;;;1.70;1.60;;;18.80;34.40;;;;;;4989364;28;20200;-83
2021/04/20 11:08:47;;;;;;;1.90;1.70;;;18.80;34.10;;;;;;4987571;28;20683;-82
2021/04/20 11:11:28;;;;;;;2.30;1.58;;;18.80;33.90;;;;;;4971144;28;20190;-82
2021/04/20 11:13:54;;;;;;;3.10;1.50;;;18.90;34.00;;;;;;4985835;28;20285;-82
2021/04/20 11:16:47;;;;;;;2.15;1.58;;;18.90;34.10;;;;;;4986935;28;20217;-81
2021/04/20 11:19:14;;;;;;;2.17;1.60;;;18.90;34.90;;;;;;4968647;28;20244;-83
2021/04/20 11:21:43;;;;;;;4.53;1.50;;;18.80;34.20;;;;;;4987201;28;20272;-81
2021/04/20 11:24:29;;;;;;;3.22;1.50;;;18.80;34.20;;;;;;4988700;28;20256;-83
2021/04/20 11:27:04;;;;;;;1.63;1.50;;;18.80;34.20;;;;;;4969369;28;20220;-83
2021/04/20 11:29:42;;;;;;;1.88;1.75;;;18.90;34.20;;;;;;4988138;28;20215;-84
2021/04/20 11:32:09;;;;;;;2.42;1.58;;;18.90;33.90;;;;;;4987020;28;20204;-84
2021/04/20 11:34:34;;;;;;;3.17;1.65;;;18.90;34.00;;;;;;4987794;28;20554;-83
2021/04/20 11:37:05;;;;;;;2.08;1.77;;;18.90;34.00;;;;;;4970081;28;20220;-83
2021/04/20 11:39:38;;;;;;;2.10;1.60;;;18.80;34.10;;;;;;4986438;28;20205;-85
2021/04/20 11:42:06;;;;;;;1.80;1.58;;;18.80;34.20;;;;;;4987186;28;20197;-83
2021/04/20 11:44:42;;;;;;;2.70;1.80;;;18.70;34.10;;;;;;4986730;28;20231;-83
2021/04/20 11:47:15;;;;;;;1.90;1.73;;;18.70;34.10;;;;;;4986204;28;20279;-83
2021/04/20 11:49:58;;;;;;;1.92;1.70;;;18.80;34.00;;;;;;4987865;28;20219;-83
2021/04/20 11:52:37;;;;;;;1.65;1.50;;;18.70;34.10;;;;;;4986971;28;20223;-83
2021/04/20 11:55:10;;;;;;;2.05;1.70;;;18.60;34.20;;;;;;4986519;28;20285;-83
2021/04/20 11:57:40;;;;;;;1.50;1.40;;;18.60;34.40;;;;;;4987685;28;20561;-84
2021/04/20 12:00:11;;;;;;;1.52;1.42;;;18.60;34.40;;;;;;4986388;28;20212;-82
2021/04/20 12:02:45;;;;;;;1.98;1.60;;;18.60;34.40;;;;;;4986907;28;20197;-83
2021/04/20 12:05:21;;;;;;;1.92;1.70;;;18.50;34.40;;;;;;4969526;28;20224;-83
2021/04/20 12:07:50;;;;;;;1.65;1.45;;;18.50;34.50;;;;;;4970017;28;20196;-83
2021/04/20 12:10:24;;;;;;;1.70;1.55;;;18.50;34.40;;;;;;4954518;28;20209;-83
2021/04/20 12:12:57;;;;;;;3.00;1.90;;;18.50;34.40;;;;;;4987638;28;20207;-83
2021/04/20 12:15:23;;;;;;;2.35;1.77;;;18.60;34.50;;;;;;4966955;28;20248;-86
2021/04/20 12:17:55;;;;;;;1.38;1.27;;;18.50;34.60;;;;;;4968027;28;20248;-84
2021/04/20 12:20:28;;;;;;;1.73;1.63;;;18.50;34.80;;;;;;4967442;29;20206;-83
2021/04/20 12:22:56;;;;;;;2.72;1.70;;;18.40;34.60;;;;;;4951037;29;20205;-85
2021/04/20 12:25:23;;;;;;;2.58;1.50;;;18.40;34.70;;;;;;4968766;28;20256;-83
2021/04/20 12:27:54;;;;;;;2.00;1.80;;;18.40;34.70;;;;;;4951179;29;20201;-82
2021/04/20 12:30:28;;;;;;;3.67;1.60;;;18.40;34.80;;;;;;4966731;29;20213;-82
2021/04/20 12:32:55;;;;;;;2.25;1.50;;;18.40;34.90;;;;;;4949894;29;20230;-81
2021/04/20 12:35:36;;;;;;;1.80;1.50;;;18.40;35.20;;;;;;4967363;29;20205;-82
2021/04/20 12:38:04;;;;;;;1.98;1.65;;;18.50;35.00;;;;;;4966044;28;20228;-83
2021/04/20 12:40:30;;;;;;;3.00;1.58;;;18.50;34.80;;;;;;4965934;28;20237;-80
2021/04/20 12:43:05;;;;;;;1.90;1.70;;;18.50;34.90;;;;;;4964428;28;20207;-81
2021/04/20 12:45:36;;;;;;;1.65;1.50;;;18.60;34.70;;;;;;4963638;28;20228;-79
2021/04/20 12:48:03;;;;;;;2.90;1.92;;;18.60;34.60;;;;;;4963200;28;20220;-82
2021/04/20 12:50:34;;;;;;;2.03;1.60;;;18.70;34.40;;;;;;4985259;28;20215;-82
2021/04/20 12:53:05;;;;;;;1.67;1.58;;;18.70;34.30;;;;;;4966698;28;20199;-83
2021/04/20 12:55:40;;;;;;;1.70;1.60;;;18.80;34.30;;;;;;4977232;28;20209;-83
2021/04/20 12:58:10;;;;;;;1.60;1.40;;;18.80;33.90;;;;;;4986331;28;20199;-83
2021/04/20 13:00:35;;;;;;;3.03;1.60;;;19.00;33.80;;;;;;4965591;28;20216;-83
2021/04/20 13:03:02;;;;;;;1.67;1.45;;;19.00;33.90;;;;;;4967363;28;20193;-82
2021/04/20 13:05:48;;;;;;;1.70;1.60;;;18.90;34.00;;;;;;4966716;29;20225;-82
2021/04/20 13:08:14;;;;;;;2.10;1.70;;;18.90;34.20;;;;;;4982989;28;20204;-83
2021/04/20 13:10:41;;;;;;;2.00;1.75;;;18.90;34.10;;;;;;4967795;28;20220;-82
2021/04/20 13:13:16;;;;;;;1.83;1.73;;;18.80;34.20;;;;;;4983470;28;20228;-83
2021/04/20 13:15:42;;;;;;;4.70;1.83;;;18.80;34.30;;;;;;4949960;29;20232;-81
2021/04/20 13:18:19;;;;;;;1.83;1.40;;;18.80;34.20;;;;;;4965055;29;20193;-83
2021/04/20 13:20:47;;;;;;;2.63;1.60;;;18.80;34.20;;;;;;4964801;28;20240;-83